Terminal Aerodrome Forecast
Issued by NWS

Home | Current Version | Previous Version | Text Only | Print | Product List | Glossary On
Versions: 1 2 3 4 5 6 7 8 9 10 11 12 13 14 15 16 17 18 19 20 21 22
000
FTUS45 KBOU 231601 AAA
TAFAPA
TAF AMD
KAPA 231601Z 2316/2412 18014G22KT P6SM FEW100 SCT170 SCT220
     FM232000 19025G38KT P6SM SCT100 BKN200
     FM232300 24015G25KT P6SM SCT090 SCT150
     FM240300 27014KT P6SM FEW090 SCT150
     FM240500 30012KT P6SM FEW110 SCT150
     FM240800 04008KT P6SM SCT080 BKN110
     FM241100 16007KT P6SM FEW090 SCT150=

USA.gov is the U.S. government's official web portal to all federal, state and local government web resources and services.